sensor_id;sensor_type;location;lat;lon;timestamp;pressure;altitude;pressure_sealevel;temperature;humidity
44144;BME280;68165;51.920;4.492;2023-06-22T00:00:52;68317.19;;;22.18;85.18
44144;BME280;68165;51.920;4.492;2023-06-22T00:03:19;68316.50;;;22.15;85.47
44144;BME280;68165;51.920;4.492;2023-06-22T00:05:48;68311.16;;;22.15;85.05
44144;BME280;68165;51.920;4.492;2023-06-22T00:08:14;68306.06;;;22.11;85.09
44144;BME280;68165;51.920;4.492;2023-06-22T00:10:40;68307.75;;;22.12;84.64
44144;BME280;68165;51.920;4.492;2023-06-22T00:13:07;68305.53;;;22.10;84.56
44144;BME280;68165;51.920;4.492;2023-06-22T00:15:37;68311.41;;;22.11;84.68
44144;BME280;68165;51.920;4.492;2023-06-22T00:18:04;68303.13;;;22.06;84.12
44144;BME280;68165;51.920;4.492;2023-06-22T00:20:29;68303.13;;;22.06;84.56
44144;BME280;68165;51.920;4.492;2023-06-22T00:22:59;68305.94;;;22.08;84.75
44144;BME280;68165;51.920;4.492;2023-06-22T00:25:25;68309.75;;;22.09;84.56
44144;BME280;68165;51.920;4.492;2023-06-22T00:27:51;68305.53;;;22.10;84.36
44144;BME280;68165;51.920;4.492;2023-06-22T00:30:18;68307.75;;;22.12;84.38
44144;BME280;68165;51.920;4.492;2023-06-22T00:32:44;68302.28;;;22.10;84.55
44144;BME280;68165;51.920;4.492;2023-06-22T00:35:11;68308.19;;;22.10;84.24
44144;BME280;68165;51.920;4.492;2023-06-22T00:37:37;68315.38;;;22.14;84.22
44144;BME280;68165;51.920;4.492;2023-06-22T00:40:04;68311.56;;;22.13;83.72
44144;BME280;68165;51.920;4.492;2023-06-22T00:42:30;68306.63;;;22.11;83.58
44144;BME280;68165;51.920;4.492;2023-06-22T00:44:55;68305.53;;;22.10;83.88
44144;BME280;68165;51.920;4.492;2023-06-22T00:47:21;68300.44;;;22.06;84.13
44144;BME280;68165;51.920;4.492;2023-06-22T00:49:48;68301.84;;;22.02;84.32
44144;BME280;68165;51.920;4.492;2023-06-22T00:52:17;68294.13;;;21.97;85.24
44144;BME280;68165;51.920;4.492;2023-06-22T00:54:50;68294.53;;;21.95;85.95
44144;BME280;68165;51.920;4.492;2023-06-22T00:57:17;68291.13;;;21.92;85.48
44144;BME280;68165;51.920;4.492;2023-06-22T00:59:44;68288.31;;;21.90;86.07
44144;BME280;68165;51.920;4.492;2023-06-22T01:02:09;68277.91;;;21.85;85.85
44144;BME280;68165;51.920;4.492;2023-06-22T01:04:36;68278.88;;;21.84;86.09
44144;BME280;68165;51.920;4.492;2023-06-22T01:07:13;68277.75;;;21.83;86.53
44144;BME280;68165;51.920;4.492;2023-06-22T01:10:08;68273.41;;;21.81;86.51
44144;BME280;68165;51.920;4.492;2023-06-22T01:12:44;68269.19;;;21.73;86.59
44144;BME280;68165;51.920;4.492;2023-06-22T01:15:14;68265.38;;;21.72;86.31
44144;BME280;68165;51.920;4.492;2023-06-22T01:17:42;68259.34;;;21.69;86.30
44144;BME280;68165;51.920;4.492;2023-06-22T01:20:09;68252.03;;;21.62;86.37
44144;BME280;68165;51.920;4.492;2023-06-22T01:23:16;68258.63;;;21.66;86.98
44144;BME280;68165;51.920;4.492;2023-06-22T01:28:46;68245.84;;;21.56;87.36
44144;BME280;68165;51.920;4.492;2023-06-22T01:31:15;68240.75;;;21.52;87.78
44144;BME280;68165;51.920;4.492;2023-06-22T01:33:44;68240.75;;;21.52;87.89
44144;BME280;68165;51.920;4.492;2023-06-22T01:36:11;68242.84;;;21.51;88.22
44144;BME280;68165;51.920;4.492;2023-06-22T01:38:38;68246.66;;;21.52;87.99
44144;BME280;68165;51.920;4.492;2023-06-22T01:41:04;68241.75;;;21.50;88.28
44144;BME280;68165;51.920;4.492;2023-06-22T01:43:30;68242.31;;;21.51;88.18
44144;BME280;68165;51.920;4.492;2023-06-22T01:45:56;68237.41;;;21.49;88.84
44144;BME280;68165;51.920;4.492;2023-06-22T01:48:24;68245.53;;;21.51;88.82
44144;BME280;68165;51.920;4.492;2023-06-22T01:50:51;68244.16;;;21.55;88.76
44144;BME280;68165;51.920;4.492;2023-06-22T01:53:18;68237.53;;;21.51;89.22
44144;BME280;68165;51.920;4.492;2023-06-22T01:55:45;68246.25;;;21.54;89.30
44144;BME280;68165;51.920;4.492;2023-06-22T01:58:10;68245.13;;;21.53;89.41
44144;BME280;68165;51.920;4.492;2023-06-22T02:00:40;68243.03;;;21.54;90.00
44144;BME280;68165;51.920;4.492;2023-06-22T02:03:12;68237.97;;;21.49;90.35
44144;BME280;68165;51.920;4.492;2023-06-22T02:06:01;68246.66;;;21.52;90.14
44144;BME280;68165;51.920;4.492;2023-06-22T02:08:41;68236.25;;;21.48;90.80
44144;BME280;68165;51.920;4.492;2023-06-22T02:11:09;68225.72;;;21.41;90.61
44144;BME280;68165;51.920;4.492;2023-06-22T02:13:36;68233.31;;;21.43;91.09
44144;BME280;68165;51.920;4.492;2023-06-22T02:16:03;68226.16;;;21.39;90.90
44144;BME280;68165;51.920;4.492;2023-06-22T02:18:28;68218.81;;;21.32;91.62
44144;BME280;68165;51.920;4.492;2023-06-22T02:20:54;68213.19;;;21.27;92.44
44144;BME280;68165;51.920;4.492;2023-06-22T02:23:19;68214.19;;;21.26;92.63
44144;BME280;68165;51.920;4.492;2023-06-22T02:25:45;68212.63;;;21.27;93.35
44144;BME280;68165;51.920;4.492;2023-06-22T02:28:10;68212.06;;;21.26;93.40
44144;BME280;68165;51.920;4.492;2023-06-22T02:30:35;68210.22;;;21.22;93.61
44144;BME280;68165;51.920;4.492;2023-06-22T02:33:01;68205.88;;;21.21;94.02
44144;BME280;68165;51.920;4.492;2023-06-22T02:35:27;68197.97;;;21.13;94.66
44144;BME280;68165;51.920;4.492;2023-06-22T02:37:59;68194.47;;;21.08;94.82
44144;BME280;68165;51.920;4.492;2023-06-22T02:40:26;68191.66;;;21.05;95.33
44144;BME280;68165;51.920;4.492;2023-06-22T02:42:51;68189.94;;;21.04;95.77
44144;BME280;68165;51.920;4.492;2023-06-22T02:45:17;68182.78;;;21.00;96.34
44144;BME280;68165;51.920;4.492;2023-06-22T02:47:42;68180.53;;;20.98;96.75
44144;BME280;68165;51.920;4.492;2023-06-22T02:50:08;68180.53;;;20.98;96.99
44144;BME280;68165;51.920;4.492;2023-06-22T02:52:33;68178.88;;;20.96;96.89
44144;BME280;68165;51.920;4.492;2023-06-22T02:54:59;68179.44;;;20.97;97.24
44144;BME280;68165;51.920;4.492;2023-06-22T02:57:24;68181.38;;;20.94;97.29
44144;BME280;68165;51.920;4.492;2023-06-22T02:59:50;68181.94;;;20.94;97.74
44144;BME280;68165;51.920;4.492;2023-06-22T03:02:15;68179.69;;;20.92;97.72
44144;BME280;68165;51.920;4.492;2023-06-22T03:04:40;68180.97;;;20.96;97.87
44144;BME280;68165;51.920;4.492;2023-06-22T03:07:06;68185.16;;;20.95;98.18
44144;BME280;68165;51.920;4.492;2023-06-22T03:09:31;68184.75;;;20.97;98.33
44144;BME280;68165;51.920;4.492;2023-06-22T03:11:56;68178.72;;;20.94;98.70
44144;BME280;68165;51.920;4.492;2023-06-22T03:14:22;68177.00;;;20.92;99.15
44144;BME280;68165;51.920;4.492;2023-06-22T03:16:47;68178.72;;;20.94;99.19
44144;BME280;68165;51.920;4.492;2023-06-22T03:19:13;68179.44;;;20.97;99.18
44144;BME280;68165;51.920;4.492;2023-06-22T03:21:39;68177.72;;;20.95;99.33
44144;BME280;68165;51.920;4.492;2023-06-22T03:24:06;68180.25;;;20.93;99.82
44144;BME280;68165;51.920;4.492;2023-06-22T03:26:31;68177.16;;;20.95;99.94
44144;BME280;68165;51.920;4.492;2023-06-22T03:28:57;68184.75;;;20.97;99.96
44144;BME280;68165;51.920;4.492;2023-06-22T03:31:22;68177.72;;;20.95;100.00
44144;BME280;68165;51.920;4.492;2023-06-22T03:33:49;68182.09;;;20.97;100.00
44144;BME280;68165;51.920;4.492;2023-06-22T03:36:15;68176.03;;;20.94;100.00
44144;BME280;68165;51.920;4.492;2023-06-22T03:38:48;68177.72;;;20.95;100.00
44144;BME280;68165;51.920;4.492;2023-06-22T03:41:13;68174.34;;;20.92;100.00
44144;BME280;68165;51.920;4.492;2023-06-22T03:43:39;68175.34;;;20.91;100.00
44144;BME280;68165;51.920;4.492;2023-06-22T03:46:05;68167.59;;;20.86;100.00
44144;BME280;68165;51.920;4.492;2023-06-22T03:48:30;68163.66;;;20.83;100.00
44144;BME280;68165;51.920;4.492;2023-06-22T03:50:56;68164.78;;;20.84;100.00
44144;BME280;68165;51.920;4.492;2023-06-22T03:53:21;68172.94;;;20.86;100.00
44144;BME280;68165;51.920;4.492;2023-06-22T03:55:53;68171.94;;;20.88;100.00
44144;BME280;68165;51.920;4.492;2023-06-22T03:58:19;68170.81;;;20.87;100.00
44144;BME280;68165;51.920;4.492;2023-06-22T04:00:49;68175.47;;;20.93;100.00
44144;BME280;68165;51.920;4.492;2023-06-22T04:03:15;68176.03;;;20.94;100.00
44144;BME280;68165;51.920;4.492;2023-06-22T04:05:41;68183.06;;;20.95;100.00
44144;BME280;68165;51.920;4.492;2023-06-22T04:08:07;68175.63;;;20.96;100.00
44144;BME280;68165;51.920;4.492;2023-06-22T04:10:32;68185.88;;;20.98;100.00
44144;BME280;68165;51.920;4.492;2023-06-22T04:12:57;68187.28;;;21.04;100.00
44144;BME280;68165;51.920;4.492;2023-06-22T04:15:23;68225.00;;;21.38;100.00
44144;BME280;68165;51.920;4.492;2023-06-22T04:17:48;68298.22;;;22.04;98.16
44144;BME280;68165;51.920;4.492;2023-06-22T04:20:14;68329.00;;;22.29;95.67
44144;BME280;68165;51.920;4.492;2023-06-22T04:22:39;68316.78;;;22.20;95.08
44144;BME280;68165;51.920;4.492;2023-06-22T04:25:05;68312.13;;;22.14;94.65
44144;BME280;68165;51.920;4.492;2023-06-22T04:27:32;68302.13;;;22.07;94.97
44144;BME280;68165;51.920;4.492;2023-06-22T04:29:57;68300.88;;;22.04;94.90
44144;BME280;68165;51.920;4.492;2023-06-22T04:32:25;68296.50;;;22.02;94.83
44144;BME280;68165;51.920;4.492;2023-06-22T04:34:50;68298.06;;;22.01;94.68
44144;BME280;68165;51.920;4.492;2023-06-22T04:37:17;68297.63;;;22.03;94.75
44144;BME280;68165;51.920;4.492;2023-06-22T04:39:43;68305.38;;;22.08;94.18
44144;BME280;68165;51.920;4.492;2023-06-22T04:42:08;68303.28;;;22.08;93.81
44144;BME280;68165;51.920;4.492;2023-06-22T04:44:34;68312.97;;;22.19;93.29
44144;BME280;68165;51.920;4.492;2023-06-22T04:47:01;68326.22;;;22.26;93.59
44144;BME280;68165;51.920;4.492;2023-06-22T04:49:29;68338.59;;;22.37;92.84
44144;BME280;68165;51.920;4.492;2023-06-22T04:51:58;68336.75;;;22.33;93.00
44144;BME280;68165;51.920;4.492;2023-06-22T04:54:24;68335.34;;;22.37;92.88
44144;BME280;68165;51.920;4.492;2023-06-22T04:56:49;68337.06;;;22.38;92.55
44144;BME280;68165;51.920;4.492;2023-06-22T04:59:24;68332.13;;;22.36;92.67
44144;BME280;68165;51.920;4.492;2023-06-22T05:02:01;68339.56;;;22.36;92.79
44144;BME280;68165;51.920;4.492;2023-06-22T05:04:28;68336.06;;;22.40;92.44
44144;BME280;68165;51.920;4.492;2023-06-22T05:06:56;68337.06;;;22.38;92.46
44144;BME280;68165;51.920;4.492;2023-06-22T05:09:22;68353.66;;;22.49;92.10
44144;BME280;68165;51.920;4.492;2023-06-22T05:11:48;68355.78;;;22.58;91.89
44144;BME280;68165;51.920;4.492;2023-06-22T05:14:14;68369.31;;;22.70;90.92
44144;BME280;68165;51.920;4.492;2023-06-22T05:16:41;68383.09;;;22.77;90.93
44144;BME280;68165;51.920;4.492;2023-06-22T05:19:07;68400.72;;;22.96;90.12
44144;BME280;68165;51.920;4.492;2023-06-22T05:21:32;68421.84;;;23.10;89.17
44144;BME280;68165;51.920;4.492;2023-06-22T05:23:58;68442.97;;;23.34;88.19
44144;BME280;68165;51.920;4.492;2023-06-22T05:26:26;68456.22;;;23.41;87.51
44144;BME280;68165;51.920;4.492;2023-06-22T05:28:52;68463.28;;;23.52;86.96
44144;BME280;68165;51.920;4.492;2023-06-22T05:31:18;68466.53;;;23.52;86.52
44144;BME280;68165;51.920;4.492;2023-06-22T05:33:45;68463.69;;;23.50;86.23
44144;BME280;68165;51.920;4.492;2023-06-22T05:36:11;68466.38;;;23.50;85.66
44144;BME280;68165;51.920;4.492;2023-06-22T05:38:37;68478.34;;;23.63;85.01
44144;BME280;68165;51.920;4.492;2023-06-22T05:41:03;68503.16;;;23.85;83.70
44144;BME280;68165;51.920;4.492;2023-06-22T05:43:28;68525.84;;;24.08;82.39
44144;BME280;68165;51.920;4.492;2023-06-22T05:45:54;68564.66;;;24.40;80.75
44144;BME280;68165;51.920;4.492;2023-06-22T05:48:19;68599.19;;;24.74;78.48
44144;BME280;68165;51.920;4.492;2023-06-22T05:50:44;68624.03;;;24.96;76.70
44144;BME280;68165;51.920;4.492;2023-06-22T05:53:11;68633.06;;;25.04;75.49
44144;BME280;68165;51.920;4.492;2023-06-22T05:55:36;68632.50;;;25.04;74.96
44144;BME280;68165;51.920;4.492;2023-06-22T05:58:02;68642.66;;;25.13;74.39
44144;BME280;68165;51.920;4.492;2023-06-22T06:00:29;68638.13;;;25.09;73.44
44144;BME280;68165;51.920;4.492;2023-06-22T06:02:54;68619.38;;;24.90;72.83
44144;BME280;68165;51.920;4.492;2023-06-22T06:05:19;68607.38;;;24.76;72.27
44144;BME280;68165;51.920;4.492;2023-06-22T06:07:45;68594.53;;;24.67;72.39
44144;BME280;68165;51.920;4.492;2023-06-22T06:10:11;68577.19;;;24.54;72.78
44144;BME280;68165;51.920;4.492;2023-06-22T06:12:37;68562.09;;;24.43;73.07
44144;BME280;68165;51.920;4.492;2023-06-22T06:15:03;68573.09;;;24.48;73.06
44144;BME280;68165;51.920;4.492;2023-06-22T06:17:30;68570.00;;;24.50;72.70
44144;BME280;68165;51.920;4.492;2023-06-22T06:19:56;68566.47;;;24.45;72.62
44144;BME280;68165;51.920;4.492;2023-06-22T06:22:21;68561.56;;;24.43;72.26
44144;BME280;68165;51.920;4.492;2023-06-22T06:24:48;68558.00;;;24.37;72.48
44144;BME280;68165;51.920;4.492;2023-06-22T06:27:14;68566.75;;;24.40;72.29
44144;BME280;68165;51.920;4.492;2023-06-22T06:29:39;68570.44;;;24.48;71.56
44144;BME280;68165;51.920;4.492;2023-06-22T06:32:05;68582.69;;;24.57;71.41
44144;BME280;68165;51.920;4.492;2023-06-22T06:34:31;68594.25;;;24.72;70.92
44144;BME280;68165;51.920;4.492;2023-06-22T06:36:59;68622.75;;;24.93;70.56
44144;BME280;68165;51.920;4.492;2023-06-22T06:39:24;68639.25;;;25.10;69.57
44144;BME280;68165;51.920;4.492;2023-06-22T06:41:50;68649.84;;;25.17;69.12
44144;BME280;68165;51.920;4.492;2023-06-22T06:44:15;68646.03;;;25.16;69.28
44144;BME280;68165;51.920;4.492;2023-06-22T06:46:42;68637.00;;;25.08;69.42
44144;BME280;68165;51.920;4.492;2023-06-22T06:49:07;68640.38;;;25.11;69.63
44144;BME280;68165;51.920;4.492;2023-06-22T06:51:33;68635.88;;;25.07;69.43
44144;BME280;68165;51.920;4.492;2023-06-22T06:53:58;68635.16;;;25.04;69.44
44144;BME280;68165;51.920;4.492;2023-06-22T06:56:24;68626.28;;;24.98;69.62
44144;BME280;68165;51.920;4.492;2023-06-22T06:58:51;68630.81;;;25.02;69.79
44144;BME280;68165;51.920;4.492;2023-06-22T07:01:16;68643.22;;;25.13;69.95
44144;BME280;68165;51.920;4.492;2023-06-22T07:03:41;68659.00;;;25.28;69.65
44144;BME280;68165;51.920;4.492;2023-06-22T07:06:09;68691.06;;;25.54;69.21
44144;BME280;68165;51.920;4.492;2023-06-22T07:08:34;68720.00;;;25.82;67.95
44144;BME280;68165;51.920;4.492;2023-06-22T07:11:01;68743.16;;;26.03;67.09
44144;BME280;68165;51.920;4.492;2023-06-22T07:13:26;68759.22;;;26.22;66.60
44144;BME280;68165;51.920;4.492;2023-06-22T07:15:52;68782.69;;;26.38;65.24
44144;BME280;68165;51.920;4.492;2023-06-22T07:18:17;68811.22;;;26.59;64.76
44144;BME280;68165;51.920;4.492;2023-06-22T07:20:42;68827.47;;;26.81;63.17
44144;BME280;68165;51.920;4.492;2023-06-22T07:23:08;68841.88;;;26.89;62.07
44144;BME280;68165;51.920;4.492;2023-06-22T07:25:33;68849.38;;;26.98;61.77
44144;BME280;68165;51.920;4.492;2023-06-22T07:28:03;68856.72;;;27.05;61.41
44144;BME280;68165;51.920;4.492;2023-06-22T07:30:30;68871.97;;;27.18;61.19
44144;BME280;68165;51.920;4.492;2023-06-22T07:32:56;68891.75;;;27.36;60.17
44144;BME280;68165;51.920;4.492;2023-06-22T07:35:23;68908.56;;;27.49;58.94
44144;BME280;68165;51.920;4.492;2023-06-22T07:37:48;68926.38;;;27.70;57.64
44144;BME280;68165;51.920;4.492;2023-06-22T07:40:14;68949.28;;;27.85;56.49
44144;BME280;68165;51.920;4.492;2023-06-22T07:42:39;68965.81;;;28.02;55.68
44144;BME280;68165;51.920;4.492;2023-06-22T07:45:06;68975.44;;;28.11;55.25
44144;BME280;68165;51.920;4.492;2023-06-22T07:47:34;68970.47;;;28.09;54.66
44144;BME280;68165;51.920;4.492;2023-06-22T07:50:00;68948.72;;;27.85;52.84
44144;BME280;68165;51.920;4.492;2023-06-22T07:52:27;68927.81;;;27.66;52.88
44144;BME280;68165;51.920;4.492;2023-06-22T07:54:52;68928.50;;;27.69;53.19
44144;BME280;68165;51.920;4.492;2023-06-22T07:57:18;68936.44;;;27.76;52.73
44144;BME280;68165;51.920;4.492;2023-06-22T07:59:44;68944.31;;;27.83;52.43
44144;BME280;68165;51.920;4.492;2023-06-22T08:02:09;68960.59;;;27.95;52.40
44144;BME280;68165;51.920;4.492;2023-06-22T08:04:35;68973.16;;;28.09;51.99
44144;BME280;68165;51.920;4.492;2023-06-22T08:07:02;68990.44;;;28.29;51.63
44144;BME280;68165;51.920;4.492;2023-06-22T08:09:31;69010.38;;;28.40;51.14
44144;BME280;68165;51.920;4.492;2023-06-22T08:11:57;69015.47;;;28.45;49.97
44144;BME280;68165;51.920;4.492;2023-06-22T08:14:24;69017.59;;;28.44;49.15
44144;BME280;68165;51.920;4.492;2023-06-22T08:16:50;69023.50;;;28.54;48.09
44144;BME280;68165;51.920;4.492;2023-06-22T08:19:15;69046.16;;;28.74;46.20
44144;BME280;68165;51.920;4.492;2023-06-22T08:21:41;69060.31;;;28.87;44.65
44144;BME280;68165;51.920;4.492;2023-06-22T08:24:06;69071.63;;;28.97;44.07
44144;BME280;68165;51.920;4.492;2023-06-22T08:26:33;69074.72;;;29.05;43.30
44144;BME280;68165;51.920;4.492;2023-06-22T08:29:01;69088.03;;;29.12;42.73
44144;BME280;68165;51.920;4.492;2023-06-22T08:31:26;69114.09;;;29.35;42.37
44144;BME280;68165;51.920;4.492;2023-06-22T08:33:52;69151.88;;;29.67;41.67
44144;BME280;68165;51.920;4.492;2023-06-22T08:36:17;69181.34;;;29.93;40.85
44144;BME280;68165;51.920;4.492;2023-06-22T08:38:43;69212.59;;;30.23;40.61
44144;BME280;68165;51.920;4.492;2023-06-22T08:41:09;69235.25;;;30.43;39.26
44144;BME280;68165;51.920;4.492;2023-06-22T08:43:34;69230.84;;;30.42;39.32
44144;BME280;68165;51.920;4.492;2023-06-22T08:46:00;69230.72;;;30.39;39.49
44144;BME280;68165;51.920;4.492;2023-06-22T08:48:26;69226.63;;;30.33;39.85
44144;BME280;68165;51.920;4.492;2023-06-22T08:50:51;69221.09;;;30.31;40.30
44144;BME280;68165;51.920;4.492;2023-06-22T08:53:16;69217.13;;;30.27;40.62
44144;BME280;68165;51.920;4.492;2023-06-22T08:55:41;69214.31;;;30.25;40.94
44144;BME280;68165;51.920;4.492;2023-06-22T08:58:07;69206.94;;;30.18;41.61
44144;BME280;68165;51.920;4.492;2023-06-22T09:00:32;69200.16;;;30.12;41.75
44144;BME280;68165;51.920;4.492;2023-06-22T09:03:00;69217.13;;;30.27;41.78
44144;BME280;68165;51.920;4.492;2023-06-22T09:05:25;69245.19;;;30.48;41.51
44144;BME280;68165;51.920;4.492;2023-06-22T09:07:53;69261.91;;;30.67;41.36
44144;BME280;68165;51.920;4.492;2023-06-22T09:10:21;69272.53;;;30.74;41.63
44144;BME280;68165;51.920;4.492;2023-06-22T09:12:47;69273.66;;;30.75;41.98
44144;BME280;68165;51.920;4.492;2023-06-22T09:15:12;69284.31;;;30.82;41.89
44144;BME280;68165;51.920;4.492;2023-06-22T09:17:38;69265.19;;;30.68;42.11
44144;BME280;68165;51.920;4.492;2023-06-22T09:20:03;69262.47;;;30.68;42.60
44144;BME280;68165;51.920;4.492;2023-06-22T09:22:31;69264.59;;;30.67;42.28
44144;BME280;68165;51.920;4.492;2023-06-22T09:24:56;69241.63;;;30.52;43.38
44144;BME280;68165;51.920;4.492;2023-06-22T09:27:22;69240.22;;;30.46;43.00
44144;BME280;68165;51.920;4.492;2023-06-22T09:29:48;69223.91;;;30.33;43.58
44144;BME280;68165;51.920;4.492;2023-06-22T09:32:14;69221.09;;;30.31;43.39
44144;BME280;68165;51.920;4.492;2023-06-22T09:34:39;69222.25;;;30.32;43.27
44144;BME280;68165;51.920;4.492;2023-06-22T09:37:05;69203.53;;;30.15;42.83
44144;BME280;68165;51.920;4.492;2023-06-22T09:39:30;69200.16;;;30.12;43.57
44144;BME280;68165;51.920;4.492;2023-06-22T09:42:00;69206.13;;;30.13;43.86
44144;BME280;68165;51.920;4.492;2023-06-22T09:44:26;69216.00;;;30.26;44.03
44144;BME280;68165;51.920;4.492;2023-06-22T09:46:51;69218.72;;;30.26;43.95
44144;BME280;68165;51.920;4.492;2023-06-22T09:49:17;69200.16;;;30.12;44.40
44144;BME280;68165;51.920;4.492;2023-06-22T09:51:42;69212.50;;;30.21;44.73
44144;BME280;68165;51.920;4.492;2023-06-22T09:54:07;69212.59;;;30.23;44.85
44144;BME280;68165;51.920;4.492;2023-06-22T09:56:33;69208.66;;;30.20;44.74
44144;BME280;68165;51.920;4.492;2023-06-22T09:58:58;69205.81;;;30.17;44.79
44144;BME280;68165;51.920;4.492;2023-06-22T10:01:23;69217.59;;;30.25;44.59
44144;BME280;68165;51.920;4.492;2023-06-22T10:03:52;69216.88;;;30.22;45.28
44144;BME280;68165;51.920;4.492;2023-06-22T10:06:19;69214.31;;;30.25;45.33
44144;BME280;68165;51.920;4.492;2023-06-22T10:08:45;69212.50;;;30.21;46.26
44144;BME280;68165;51.920;4.492;2023-06-22T10:11:10;69203.28;;;30.10;46.72
44144;BME280;68165;51.920;4.492;2023-06-22T10:13:35;69187.00;;;29.98;47.03
44144;BME280;68165;51.920;4.492;2023-06-22T10:16:01;69191.53;;;30.02;47.01
44144;BME280;68165;51.920;4.492;2023-06-22T10:18:26;69187.13;;;30.00;46.33
44144;BME280;68165;51.920;4.492;2023-06-22T10:20:51;69187.00;;;29.98;45.87
44144;BME280;68165;51.920;4.492;2023-06-22T10:23:17;69173.53;;;29.88;45.46
44144;BME280;68165;51.920;4.492;2023-06-22T10:25:43;69164.34;;;29.78;44.56
44144;BME280;68165;51.920;4.492;2023-06-22T10:28:08;69146.91;;;29.65;45.03
44144;BME280;68165;51.920;4.492;2023-06-22T10:30:33;69126.53;;;29.46;45.39
44144;BME280;68165;51.920;4.492;2023-06-22T10:32:59;69118.19;;;29.32;46.21
44144;BME280;68165;51.920;4.492;2023-06-22T10:35:24;69114.66;;;29.36;46.62
44144;BME280;68165;51.920;4.492;2023-06-22T10:37:50;69119.19;;;29.40;46.96
44144;BME280;68165;51.920;4.492;2023-06-22T10:40:17;69117.47;;;29.38;46.75
44144;BME280;68165;51.920;4.492;2023-06-22T10:42:44;69120.44;;;29.43;47.34
44144;BME280;68165;51.920;4.492;2023-06-22T10:45:10;69112.97;;;29.34;46.84
44144;BME280;68165;51.920;4.492;2023-06-22T10:47:35;69111.13;;;29.30;47.43
44144;BME280;68165;51.920;4.492;2023-06-22T10:50:01;69122.88;;;29.38;47.05
44144;BME280;68165;51.920;4.492;2023-06-22T10:52:27;69121.31;;;29.39;46.71
44144;BME280;68165;51.920;4.492;2023-06-22T10:54:52;69112.97;;;29.34;47.29
44144;BME280;68165;51.920;4.492;2023-06-22T10:57:18;69112.69;;;29.29;48.04
44144;BME280;68165;51.920;4.492;2023-06-22T10:59:43;69107.59;;;29.25;47.96
44144;BME280;68165;51.920;4.492;2023-06-22T11:02:08;69090.28;;;29.14;48.21
44144;BME280;68165;51.920;4.492;2023-06-22T11:04:34;69088.59;;;29.12;48.52
44144;BME280;68165;51.920;4.492;2023-06-22T11:07:00;69102.47;;;29.20;48.31
44144;BME280;68165;51.920;4.492;2023-06-22T11:09:26;69102.75;;;29.25;48.34
44144;BME280;68165;51.920;4.492;2023-06-22T11:11:52;69110.09;;;29.32;48.07
44144;BME280;68165;51.920;4.492;2023-06-22T11:14:20;69112.25;;;29.31;48.25
44144;BME280;68165;51.920;4.492;2023-06-22T11:16:46;69120.06;;;29.36;48.05
44144;BME280;68165;51.920;4.492;2023-06-22T11:19:12;69129.25;;;29.46;47.83
44144;BME280;68165;51.920;4.492;2023-06-22T11:21:37;69136.47;;;29.50;47.97
44144;BME280;68165;51.920;4.492;2023-06-22T11:24:03;69136.72;;;29.55;47.76
44144;BME280;68165;51.920;4.492;2023-06-22T11:26:28;69136.16;;;29.55;48.17
44144;BME280;68165;51.920;4.492;2023-06-22T11:28:53;69130.50;;;29.50;49.36
44144;BME280;68165;51.920;4.492;2023-06-22T11:31:19;69109.69;;;29.34;49.61
44144;BME280;68165;51.920;4.492;2023-06-22T11:33:44;69102.06;;;29.22;50.72
44144;BME280;68165;51.920;4.492;2023-06-22T11:36:11;69081.81;;;29.06;51.86
44144;BME280;68165;51.920;4.492;2023-06-22T11:38:36;69078.41;;;29.03;52.14
44144;BME280;68165;51.920;4.492;2023-06-22T11:41:05;69070.63;;;28.99;52.23
44144;BME280;68165;51.920;4.492;2023-06-22T11:43:30;69078.88;;;29.01;52.43
44144;BME280;68165;51.920;4.492;2023-06-22T11:45:56;69073.19;;;28.96;52.46
44144;BME280;68165;51.920;4.492;2023-06-22T11:48:24;69060.31;;;28.87;52.66
44144;BME280;68165;51.920;4.492;2023-06-22T11:50:50;69057.47;;;28.85;53.12
44144;BME280;68165;51.920;4.492;2023-06-22T11:53:15;69052.38;;;28.80;53.78
44144;BME280;68165;51.920;4.492;2023-06-22T11:55:44;69045.75;;;28.76;54.22
44144;BME280;68165;51.920;4.492;2023-06-22T11:58:09;69060.88;;;28.88;54.01
44144;BME280;68165;51.920;4.492;2023-06-22T12:00:35;69065.41;;;28.92;53.71
44144;BME280;68165;51.920;4.492;2023-06-22T12:03:02;69065.09;;;28.96;53.02
44144;BME280;68165;51.920;4.492;2023-06-22T12:05:27;69063.28;;;28.92;53.26
44144;BME280;68165;51.920;4.492;2023-06-22T12:07:53;69058.59;;;28.86;53.11
44144;BME280;68165;51.920;4.492;2023-06-22T12:10:19;69050.00;;;28.75;53.65
44144;BME280;68165;51.920;4.492;2023-06-22T12:12:44;69046.16;;;28.74;53.75
44144;BME280;68165;51.920;4.492;2023-06-22T12:15:10;69052.97;;;28.80;53.85
44144;BME280;68165;51.920;4.492;2023-06-22T12:17:35;69053.94;;;28.79;53.76
44144;BME280;68165;51.920;4.492;2023-06-22T12:20:01;69039.94;;;28.69;54.01
44144;BME280;68165;51.920;4.492;2023-06-22T12:22:29;69034.84;;;28.64;54.39
44144;BME280;68165;51.920;4.492;2023-06-22T12:24:54;69037.53;;;28.64;54.29
44144;BME280;68165;51.920;4.492;2023-06-22T12:27:20;69042.47;;;28.66;53.97
44144;BME280;68165;51.920;4.492;2023-06-22T12:29:46;69035.84;;;28.63;54.20
44144;BME280;68165;51.920;4.492;2023-06-22T12:32:11;69030.75;;;28.58;54.38
44144;BME280;68165;51.920;4.492;2023-06-22T12:34:39;69024.91;;;28.60;54.44
44144;BME280;68165;51.920;4.492;2023-06-22T12:37:05;69028.06;;;28.58;54.47
44144;BME280;68165;51.920;4.492;2023-06-22T12:39:31;69025.22;;;28.56;54.83
44144;BME280;68165;51.920;4.492;2023-06-22T12:41:57;69016.03;;;28.45;55.33
44144;BME280;68165;51.920;4.492;2023-06-22T12:44:22;69011.06;;;28.43;55.45
44144;BME280;68165;51.920;4.492;2023-06-22T12:46:47;69007.81;;;28.42;56.01
44144;BME280;68165;51.920;4.492;2023-06-22T12:49:13;69003.59;;;28.34;56.31
44144;BME280;68165;51.920;4.492;2023-06-22T12:51:42;68985.06;;;28.20;57.12
44144;BME280;68165;51.920;4.492;2023-06-22T12:54:08;68978.28;;;28.14;57.83
44144;BME280;68165;51.920;4.492;2023-06-22T12:56:33;68981.41;;;28.12;58.51
44144;BME280;68165;51.920;4.492;2023-06-22T12:58:59;68970.34;;;28.07;59.07